sensor_id;sensor_type;location;lat;lon;timestamp;temperature;humidity
82243;DHT22;71844;51.528;4.442;2023-11-19T00:00:09;13.10;95.70
82243;DHT22;71844;51.528;4.442;2023-11-19T00:02:40;13.10;95.70
82243;DHT22;71844;51.528;4.442;2023-11-19T00:05:09;13.10;95.70
82243;DHT22;71844;51.528;4.442;2023-11-19T00:07:36;13.10;95.60
82243;DHT22;71844;51.528;4.442;2023-11-19T00:10:04;13.00;95.50
82243;DHT22;71844;51.528;4.442;2023-11-19T00:12:33;13.10;95.50
82243;DHT22;71844;51.528;4.442;2023-11-19T00:15:00;13.00;95.50
82243;DHT22;71844;51.528;4.442;2023-11-19T00:17:28;13.00;95.40
82243;DHT22;71844;51.528;4.442;2023-11-19T00:19:55;13.00;95.30
82243;DHT22;71844;51.528;4.442;2023-11-19T00:22:21;13.00;95.20
82243;DHT22;71844;51.528;4.442;2023-11-19T00:24:49;13.00;95.10
82243;DHT22;71844;51.528;4.442;2023-11-19T00:27:16;13.00;95.20
82243;DHT22;71844;51.528;4.442;2023-11-19T00:29:44;13.00;95.20
82243;DHT22;71844;51.528;4.442;2023-11-19T00:32:12;13.00;95.30
82243;DHT22;71844;51.528;4.442;2023-11-19T00:34:39;13.00;95.40
82243;DHT22;71844;51.528;4.442;2023-11-19T00:37:06;13.00;95.50
82243;DHT22;71844;51.528;4.442;2023-11-19T00:39:33;13.00;95.50
82243;DHT22;71844;51.528;4.442;2023-11-19T00:42:00;13.00;95.50
82243;DHT22;71844;51.528;4.442;2023-11-19T00:44:27;13.00;95.30
82243;DHT22;71844;51.528;4.442;2023-11-19T00:46:54;13.00;95.30
82243;DHT22;71844;51.528;4.442;2023-11-19T00:49:20;13.00;95.20
82243;DHT22;71844;51.528;4.442;2023-11-19T00:51:47;13.00;95.10
82243;DHT22;71844;51.528;4.442;2023-11-19T00:54:14;13.00;94.90
82243;DHT22;71844;51.528;4.442;2023-11-19T00:56:41;13.00;95.10
82243;DHT22;71844;51.528;4.442;2023-11-19T00:59:07;13.00;94.90
82243;DHT22;71844;51.528;4.442;2023-11-19T01:01:34;13.00;94.80
82243;DHT22;71844;51.528;4.442;2023-11-19T01:04:01;12.90;94.70
82243;DHT22;71844;51.528;4.442;2023-11-19T01:06:32;12.90;94.60
82243;DHT22;71844;51.528;4.442;2023-11-19T01:08:59;12.90;94.50
82243;DHT22;71844;51.528;4.442;2023-11-19T01:11:27;12.90;94.50
82243;DHT22;71844;51.528;4.442;2023-11-19T01:13:54;12.90;94.50
82243;DHT22;71844;51.528;4.442;2023-11-19T01:16:21;12.80;94.40
82243;DHT22;71844;51.528;4.442;2023-11-19T01:18:49;12.80;94.30
82243;DHT22;71844;51.528;4.442;2023-11-19T01:21:16;12.90;94.40
82243;DHT22;71844;51.528;4.442;2023-11-19T01:23:43;12.80;93.90
82243;DHT22;71844;51.528;4.442;2023-11-19T01:26:10;12.80;93.70
82243;DHT22;71844;51.528;4.442;2023-11-19T01:28:41;12.70;93.60
82243;DHT22;71844;51.528;4.442;2023-11-19T01:31:17;12.70;93.30
82243;DHT22;71844;51.528;4.442;2023-11-19T01:33:44;12.70;93.10
82243;DHT22;71844;51.528;4.442;2023-11-19T01:36:13;12.70;93.10
82243;DHT22;71844;51.528;4.442;2023-11-19T01:38:40;12.60;92.90
82243;DHT22;71844;51.528;4.442;2023-11-19T01:41:07;12.60;92.90
82243;DHT22;71844;51.528;4.442;2023-11-19T01:43:37;12.50;93.00
82243;DHT22;71844;51.528;4.442;2023-11-19T01:46:05;12.50;92.90
82243;DHT22;71844;51.528;4.442;2023-11-19T01:48:34;12.50;92.80
82243;DHT22;71844;51.528;4.442;2023-11-19T01:51:03;12.50;92.90
82243;DHT22;71844;51.528;4.442;2023-11-19T01:53:30;12.40;92.70
82243;DHT22;71844;51.528;4.442;2023-11-19T01:55:59;12.40;92.60
82243;DHT22;71844;51.528;4.442;2023-11-19T01:58:29;12.40;92.70
82243;DHT22;71844;51.528;4.442;2023-11-19T02:00:57;12.30;92.60
82243;DHT22;71844;51.528;4.442;2023-11-19T02:03:24;12.30;92.50
82243;DHT22;71844;51.528;4.442;2023-11-19T02:05:53;12.30;92.60
82243;DHT22;71844;51.528;4.442;2023-11-19T02:08:20;12.30;92.50
82243;DHT22;71844;51.528;4.442;2023-11-19T02:10:47;12.20;92.50
82243;DHT22;71844;51.528;4.442;2023-11-19T02:13:14;12.20;92.40
82243;DHT22;71844;51.528;4.442;2023-11-19T02:15:41;12.20;92.40
82243;DHT22;71844;51.528;4.442;2023-11-19T02:18:28;12.20;92.40
82243;DHT22;71844;51.528;4.442;2023-11-19T02:20:58;12.10;92.20
82243;DHT22;71844;51.528;4.442;2023-11-19T02:23:30;12.10;92.10
82243;DHT22;71844;51.528;4.442;2023-11-19T02:26:05;12.10;92.10
82243;DHT22;71844;51.528;4.442;2023-11-19T02:28:36;12.10;92.20
82243;DHT22;71844;51.528;4.442;2023-11-19T02:31:04;12.10;92.30
82243;DHT22;71844;51.528;4.442;2023-11-19T02:33:38;12.00;92.10
82243;DHT22;71844;51.528;4.442;2023-11-19T02:36:06;12.00;92.00
82243;DHT22;71844;51.528;4.442;2023-11-19T02:38:34;12.00;92.30
82243;DHT22;71844;51.528;4.442;2023-11-19T02:41:05;12.00;92.30
82243;DHT22;71844;51.528;4.442;2023-11-19T02:43:33;12.00;92.30
82243;DHT22;71844;51.528;4.442;2023-11-19T02:46:04;12.00;92.10
82243;DHT22;71844;51.528;4.442;2023-11-19T02:48:36;12.00;92.20
82243;DHT22;71844;51.528;4.442;2023-11-19T02:51:04;12.00;92.00
82243;DHT22;71844;51.528;4.442;2023-11-19T02:53:31;12.00;92.00
82243;DHT22;71844;51.528;4.442;2023-11-19T02:55:58;12.00;91.80
82243;DHT22;71844;51.528;4.442;2023-11-19T02:58:32;11.90;91.70
82243;DHT22;71844;51.528;4.442;2023-11-19T03:01:01;11.90;91.10
82243;DHT22;71844;51.528;4.442;2023-11-19T03:03:37;11.90;91.30
82243;DHT22;71844;51.528;4.442;2023-11-19T03:06:08;11.90;91.60
82243;DHT22;71844;51.528;4.442;2023-11-19T03:08:36;12.00;91.30
82243;DHT22;71844;51.528;4.442;2023-11-19T03:11:03;11.90;91.20
82243;DHT22;71844;51.528;4.442;2023-11-19T03:13:31;11.90;91.10
82243;DHT22;71844;51.528;4.442;2023-11-19T03:15:58;11.90;91.10
82243;DHT22;71844;51.528;4.442;2023-11-19T03:18:25;11.90;91.10
82243;DHT22;71844;51.528;4.442;2023-11-19T03:20:52;11.90;90.90
82243;DHT22;71844;51.528;4.442;2023-11-19T03:23:19;11.80;91.10
82243;DHT22;71844;51.528;4.442;2023-11-19T03:25:45;11.80;90.90
82243;DHT22;71844;51.528;4.442;2023-11-19T03:28:12;11.80;91.00
82243;DHT22;71844;51.528;4.442;2023-11-19T03:30:40;11.70;90.90
82243;DHT22;71844;51.528;4.442;2023-11-19T03:33:06;11.70;91.10
82243;DHT22;71844;51.528;4.442;2023-11-19T03:35:33;11.70;90.90
82243;DHT22;71844;51.528;4.442;2023-11-19T03:38:00;11.70;90.90
82243;DHT22;71844;51.528;4.442;2023-11-19T03:40:28;11.70;90.90
82243;DHT22;71844;51.528;4.442;2023-11-19T03:42:56;11.70;90.80
82243;DHT22;71844;51.528;4.442;2023-11-19T03:45:25;11.70;90.80
82243;DHT22;71844;51.528;4.442;2023-11-19T03:47:51;11.70;90.80
82243;DHT22;71844;51.528;4.442;2023-11-19T03:50:18;11.70;90.60
82243;DHT22;71844;51.528;4.442;2023-11-19T03:52:47;11.70;90.40
82243;DHT22;71844;51.528;4.442;2023-11-19T03:55:22;11.70;90.20
82243;DHT22;71844;51.528;4.442;2023-11-19T03:57:49;11.70;90.30
82243;DHT22;71844;51.528;4.442;2023-11-19T04:00:16;11.60;90.00
82243;DHT22;71844;51.528;4.442;2023-11-19T04:02:43;11.70;90.10
82243;DHT22;71844;51.528;4.442;2023-11-19T04:05:10;11.60;90.10
82243;DHT22;71844;51.528;4.442;2023-11-19T04:07:37;11.60;90.10
82243;DHT22;71844;51.528;4.442;2023-11-19T04:10:04;11.60;89.90
82243;DHT22;71844;51.528;4.442;2023-11-19T04:12:31;11.60;89.90
82243;DHT22;71844;51.528;4.442;2023-11-19T04:14:58;11.60;89.60
82243;DHT22;71844;51.528;4.442;2023-11-19T04:17:28;11.60;89.30
82243;DHT22;71844;51.528;4.442;2023-11-19T04:19:55;11.60;89.40
82243;DHT22;71844;51.528;4.442;2023-11-19T04:22:22;11.60;89.40
82243;DHT22;71844;51.528;4.442;2023-11-19T04:24:49;11.60;88.90
82243;DHT22;71844;51.528;4.442;2023-11-19T04:27:16;11.60;89.20
82243;DHT22;71844;51.528;4.442;2023-11-19T04:29:43;11.60;89.20
82243;DHT22;71844;51.528;4.442;2023-11-19T04:32:09;11.60;89.30
82243;DHT22;71844;51.528;4.442;2023-11-19T04:34:36;11.60;89.30
82243;DHT22;71844;51.528;4.442;2023-11-19T04:37:04;11.50;89.10
82243;DHT22;71844;51.528;4.442;2023-11-19T04:39:34;11.60;89.30
82243;DHT22;71844;51.528;4.442;2023-11-19T04:42:01;11.50;89.30
82243;DHT22;71844;51.528;4.442;2023-11-19T04:44:29;11.50;89.20
82243;DHT22;71844;51.528;4.442;2023-11-19T04:46:56;11.50;89.00
82243;DHT22;71844;51.528;4.442;2023-11-19T04:49:24;11.50;89.00
82243;DHT22;71844;51.528;4.442;2023-11-19T04:51:54;11.50;88.70
82243;DHT22;71844;51.528;4.442;2023-11-19T04:54:20;11.50;88.90
82243;DHT22;71844;51.528;4.442;2023-11-19T04:56:47;11.50;88.80
82243;DHT22;71844;51.528;4.442;2023-11-19T04:59:14;11.40;88.80
82243;DHT22;71844;51.528;4.442;2023-11-19T05:01:41;11.40;88.80
82243;DHT22;71844;51.528;4.442;2023-11-19T05:04:08;11.40;88.70
82243;DHT22;71844;51.528;4.442;2023-11-19T05:06:35;11.40;88.60
82243;DHT22;71844;51.528;4.442;2023-11-19T05:09:02;11.40;88.60
82243;DHT22;71844;51.528;4.442;2023-11-19T05:11:35;11.40;88.50
82243;DHT22;71844;51.528;4.442;2023-11-19T05:14:04;11.40;88.40
82243;DHT22;71844;51.528;4.442;2023-11-19T05:16:31;11.40;88.40
82243;DHT22;71844;51.528;4.442;2023-11-19T05:18:59;11.30;88.30
82243;DHT22;71844;51.528;4.442;2023-11-19T05:21:26;11.30;88.10
82243;DHT22;71844;51.528;4.442;2023-11-19T05:23:53;11.30;88.10
82243;DHT22;71844;51.528;4.442;2023-11-19T05:26:21;11.30;88.20
82243;DHT22;71844;51.528;4.442;2023-11-19T05:28:48;11.30;88.00
82243;DHT22;71844;51.528;4.442;2023-11-19T05:31:17;11.30;88.00
82243;DHT22;71844;51.528;4.442;2023-11-19T05:33:44;11.20;87.70
82243;DHT22;71844;51.528;4.442;2023-11-19T05:36:12;11.20;88.00
82243;DHT22;71844;51.528;4.442;2023-11-19T05:38:39;11.20;87.90
82243;DHT22;71844;51.528;4.442;2023-11-19T05:41:06;11.20;88.00
82243;DHT22;71844;51.528;4.442;2023-11-19T05:43:33;11.20;87.90
82243;DHT22;71844;51.528;4.442;2023-11-19T05:46:00;11.20;87.80
82243;DHT22;71844;51.528;4.442;2023-11-19T05:48:28;11.10;87.80
82243;DHT22;71844;51.528;4.442;2023-11-19T05:50:55;11.10;87.90
82243;DHT22;71844;51.528;4.442;2023-11-19T05:53:22;11.10;87.90
82243;DHT22;71844;51.528;4.442;2023-11-19T05:55:49;11.10;87.80
82243;DHT22;71844;51.528;4.442;2023-11-19T05:58:25;11.10;87.70
82243;DHT22;71844;51.528;4.442;2023-11-19T06:00:52;11.10;87.80
82243;DHT22;71844;51.528;4.442;2023-11-19T06:03:19;11.10;87.90
82243;DHT22;71844;51.528;4.442;2023-11-19T06:05:48;11.10;87.70
82243;DHT22;71844;51.528;4.442;2023-11-19T06:08:15;11.10;87.70
82243;DHT22;71844;51.528;4.442;2023-11-19T06:10:44;11.10;87.60
82243;DHT22;71844;51.528;4.442;2023-11-19T06:13:15;11.10;87.60
82243;DHT22;71844;51.528;4.442;2023-11-19T06:15:42;11.10;87.40
82243;DHT22;71844;51.528;4.442;2023-11-19T06:18:10;11.10;87.40
82243;DHT22;71844;51.528;4.442;2023-11-19T06:20:38;11.10;87.40
82243;DHT22;71844;51.528;4.442;2023-11-19T06:23:08;11.10;87.40
82243;DHT22;71844;51.528;4.442;2023-11-19T06:25:35;11.10;87.10
82243;DHT22;71844;51.528;4.442;2023-11-19T06:28:03;11.00;87.20
82243;DHT22;71844;51.528;4.442;2023-11-19T06:30:30;11.00;87.30
82243;DHT22;71844;51.528;4.442;2023-11-19T06:32:59;11.00;87.30
82243;DHT22;71844;51.528;4.442;2023-11-19T06:35:26;11.00;87.40
82243;DHT22;71844;51.528;4.442;2023-11-19T06:37:55;11.00;87.20
82243;DHT22;71844;51.528;4.442;2023-11-19T06:40:22;10.90;87.20
82243;DHT22;71844;51.528;4.442;2023-11-19T06:42:49;10.90;87.30
82243;DHT22;71844;51.528;4.442;2023-11-19T06:45:19;10.90;87.40
82243;DHT22;71844;51.528;4.442;2023-11-19T06:47:46;10.90;87.30
82243;DHT22;71844;51.528;4.442;2023-11-19T06:50:12;10.90;87.20
82243;DHT22;71844;51.528;4.442;2023-11-19T06:52:39;10.90;87.30
82243;DHT22;71844;51.528;4.442;2023-11-19T06:55:07;10.80;87.30
82243;DHT22;71844;51.528;4.442;2023-11-19T06:57:35;10.80;87.40
82243;DHT22;71844;51.528;4.442;2023-11-19T07:00:02;10.80;87.40
82243;DHT22;71844;51.528;4.442;2023-11-19T07:02:29;10.80;87.20
82243;DHT22;71844;51.528;4.442;2023-11-19T07:04:57;10.90;87.20
82243;DHT22;71844;51.528;4.442;2023-11-19T07:07:24;10.90;87.30
82243;DHT22;71844;51.528;4.442;2023-11-19T07:09:51;10.90;87.10
82243;DHT22;71844;51.528;4.442;2023-11-19T07:12:18;10.90;87.00
82243;DHT22;71844;51.528;4.442;2023-11-19T07:14:44;10.90;86.90
82243;DHT22;71844;51.528;4.442;2023-11-19T07:17:11;10.90;87.00
82243;DHT22;71844;51.528;4.442;2023-11-19T07:19:47;10.90;86.90
82243;DHT22;71844;51.528;4.442;2023-11-19T07:22:16;10.90;86.90
82243;DHT22;71844;51.528;4.442;2023-11-19T07:24:43;10.90;86.80
82243;DHT22;71844;51.528;4.442;2023-11-19T07:27:10;10.90;86.90
82243;DHT22;71844;51.528;4.442;2023-11-19T07:29:37;10.90;86.70
82243;DHT22;71844;51.528;4.442;2023-11-19T07:32:05;10.90;86.80
82243;DHT22;71844;51.528;4.442;2023-11-19T07:34:34;10.90;86.80
82243;DHT22;71844;51.528;4.442;2023-11-19T07:37:06;10.90;86.80
82243;DHT22;71844;51.528;4.442;2023-11-19T07:39:34;10.90;86.60
82243;DHT22;71844;51.528;4.442;2023-11-19T07:42:05;11.00;86.60
82243;DHT22;71844;51.528;4.442;2023-11-19T07:44:32;11.00;86.60
82243;DHT22;71844;51.528;4.442;2023-11-19T07:46:59;11.00;86.50
82243;DHT22;71844;51.528;4.442;2023-11-19T07:49:26;11.00;86.60
82243;DHT22;71844;51.528;4.442;2023-11-19T07:51:52;11.00;86.50
82243;DHT22;71844;51.528;4.442;2023-11-19T10:33:11;16.90;65.60
82243;DHT22;71844;51.528;4.442;2023-11-19T10:35:57;16.10;67.10
82243;DHT22;71844;51.528;4.442;2023-11-19T10:38:27;15.50;68.40
82243;DHT22;71844;51.528;4.442;2023-11-19T10:40:54;14.90;69.60
82243;DHT22;71844;51.528;4.442;2023-11-19T10:43:22;14.40;70.70
82243;DHT22;71844;51.528;4.442;2023-11-19T10:45:49;14.00;72.40
82243;DHT22;71844;51.528;4.442;2023-11-19T10:48:16;13.60;73.60
82243;DHT22;71844;51.528;4.442;2023-11-19T10:50:44;13.30;75.60
82243;DHT22;71844;51.528;4.442;2023-11-19T10:53:12;13.30;77.10
82243;DHT22;71844;51.528;4.442;2023-11-19T10:55:47;13.30;77.10
82243;DHT22;71844;51.528;4.442;2023-11-19T10:58:16;13.60;78.60
82243;DHT22;71844;51.528;4.442;2023-11-19T11:00:54;13.80;77.90
82243;DHT22;71844;51.528;4.442;2023-11-19T11:03:24;13.80;78.30
82243;DHT22;71844;51.528;4.442;2023-11-19T11:05:53;14.00;78.70
82243;DHT22;71844;51.528;4.442;2023-11-19T11:08:21;14.40;78.90
82243;DHT22;71844;51.528;4.442;2023-11-19T11:10:55;14.90;77.70
82243;DHT22;71844;51.528;4.442;2023-11-19T11:13:29;15.20;77.10
82243;DHT22;71844;51.528;4.442;2023-11-19T11:15:58;15.40;75.60
82243;DHT22;71844;51.528;4.442;2023-11-19T11:18:25;15.70;74.70
82243;DHT22;71844;51.528;4.442;2023-11-19T11:20:57;15.90;74.30
82243;DHT22;71844;51.528;4.442;2023-11-19T11:32:30;17.00;70.50
82243;DHT22;71844;51.528;4.442;2023-11-19T11:37:37;16.80;69.50
82243;DHT22;71844;51.528;4.442;2023-11-19T11:40:06;16.70;69.50
82243;DHT22;71844;51.528;4.442;2023-11-19T11:42:37;16.80;69.80
82243;DHT22;71844;51.528;4.442;2023-11-19T11:50:12;17.10;67.90
82243;DHT22;71844;51.528;4.442;2023-11-19T11:55:34;17.90;66.40
82243;DHT22;71844;51.528;4.442;2023-11-19T11:58:03;18.20;65.90
82243;DHT22;71844;51.528;4.442;2023-11-19T12:00:33;18.30;65.90
82243;DHT22;71844;51.528;4.442;2023-11-19T12:03:06;18.20;64.70
82243;DHT22;71844;51.528;4.442;2023-11-19T12:05:38;18.00;65.20
82243;DHT22;71844;51.528;4.442;2023-11-19T12:08:07;18.00;64.40
82243;DHT22;71844;51.528;4.442;2023-11-19T12:10:47;17.60;64.90
82243;DHT22;71844;51.528;4.442;2023-11-19T12:13:19;17.10;65.20
82243;DHT22;71844;51.528;4.442;2023-11-19T12:16:09;16.50;66.20
82243;DHT22;71844;51.528;4.442;2023-11-19T12:18:36;15.90;67.70
82243;DHT22;71844;51.528;4.442;2023-11-19T12:21:05;15.40;69.10
82243;DHT22;71844;51.528;4.442;2023-11-19T12:23:33;14.80;70.50
82243;DHT22;71844;51.528;4.442;2023-11-19T12:26:01;14.40;73.00
82243;DHT22;71844;51.528;4.442;2023-11-19T12:28:27;14.00;73.50
82243;DHT22;71844;51.528;4.442;2023-11-19T12:31:07;13.80;75.70
82243;DHT22;71844;51.528;4.442;2023-11-19T12:33:36;13.70;77.00
82243;DHT22;71844;51.528;4.442;2023-11-19T12:36:05;14.00;77.30
82243;DHT22;71844;51.528;4.442;2023-11-19T12:38:32;14.60;77.20
82243;DHT22;71844;51.528;4.442;2023-11-19T12:41:05;15.10;76.30
82243;DHT22;71844;51.528;4.442;2023-11-19T12:43:33;15.60;75.10
82243;DHT22;71844;51.528;4.442;2023-11-19T12:46:23;16.00;74.20
82243;DHT22;71844;51.528;4.442;2023-11-19T12:48:51;16.20;73.30
82243;DHT22;71844;51.528;4.442;2023-11-19T12:51:18;16.40;72.80
82243;DHT22;71844;51.528;4.442;2023-11-19T12:53:52;16.70;72.40
82243;DHT22;71844;51.528;4.442;2023-11-19T12:56:24;16.90;71.80
82243;DHT22;71844;51.528;4.442;2023-11-19T12:58:51;16.90;70.60
82243;DHT22;71844;51.528;4.442;2023-11-19T13:01:19;16.90;70.60
82243;DHT22;71844;51.528;4.442;2023-11-19T13:03:47;17.00;70.50
82243;DHT22;71844;51.528;4.442;2023-11-19T13:06:18;16.90;69.70
82243;DHT22;71844;51.528;4.442;2023-11-19T13:08:49;16.70;69.30
82243;DHT22;71844;51.528;4.442;2023-11-19T13:11:35;16.70;69.70
82243;DHT22;71844;51.528;4.442;2023-11-19T13:14:03;16.80;67.10
82243;DHT22;71844;51.528;4.442;2023-11-19T13:16:32;16.90;68.60
82243;DHT22;71844;51.528;4.442;2023-11-19T13:18:59;17.00;68.60
82243;DHT22;71844;51.528;4.442;2023-11-19T13:21:27;17.10;68.00
82243;DHT22;71844;51.528;4.442;2023-11-19T13:23:54;17.10;67.30
82243;DHT22;71844;51.528;4.442;2023-11-19T13:26:21;17.00;67.40
82243;DHT22;71844;51.528;4.442;2023-11-19T13:28:47;16.90;67.50
82243;DHT22;71844;51.528;4.442;2023-11-19T13:31:14;16.70;67.70
82243;DHT22;71844;51.528;4.442;2023-11-19T13:33:42;16.40;67.80
82243;DHT22;71844;51.528;4.442;2023-11-19T13:36:09;16.20;68.00
82243;DHT22;71844;51.528;4.442;2023-11-19T13:38:40;15.90;68.60
82243;DHT22;71844;51.528;4.442;2023-11-19T13:41:08;15.60;69.00
82243;DHT22;71844;51.528;4.442;2023-11-19T13:43:36;15.40;69.30
82243;DHT22;71844;51.528;4.442;2023-11-19T13:46:05;15.30;69.60
82243;DHT22;71844;51.528;4.442;2023-11-19T13:48:32;15.20;69.60
82243;DHT22;71844;51.528;4.442;2023-11-19T13:50:59;15.10;69.90
82243;DHT22;71844;51.528;4.442;2023-11-19T13:53:26;15.00;70.00
82243;DHT22;71844;51.528;4.442;2023-11-19T13:55:53;15.00;69.90
82243;DHT22;71844;51.528;4.442;2023-11-19T13:58:20;14.90;70.10
82243;DHT22;71844;51.528;4.442;2023-11-19T14:00:47;14.90;70.00
82243;DHT22;71844;51.528;4.442;2023-11-19T14:03:13;14.90;69.90
82243;DHT22;71844;51.528;4.442;2023-11-19T14:05:41;14.90;69.60
82243;DHT22;71844;51.528;4.442;2023-11-19T14:08:08;14.80;69.50
82243;DHT22;71844;51.528;4.442;2023-11-19T14:10:51;14.70;69.40
82243;DHT22;71844;51.528;4.442;2023-11-19T14:13:18;14.50;69.70
82243;DHT22;71844;51.528;4.442;2023-11-19T14:15:45;14.50;69.90
82243;DHT22;71844;51.528;4.442;2023-11-19T14:18:16;14.40;70.00
82243;DHT22;71844;51.528;4.442;2023-11-19T14:20:44;14.40;70.20
82243;DHT22;71844;51.528;4.442;2023-11-19T14:23:11;14.30;70.30
82243;DHT22;71844;51.528;4.442;2023-11-19T14:25:38;14.30;70.40
82243;DHT22;71844;51.528;4.442;2023-11-19T14:28:07;14.20;70.50
82243;DHT22;71844;51.528;4.442;2023-11-19T14:30:34;14.20;70.60
82243;DHT22;71844;51.528;4.442;2023-11-19T14:33:04;14.10;70.80
82243;DHT22;71844;51.528;4.442;2023-11-19T14:35:32;14.10;70.90
82243;DHT22;71844;51.528;4.442;2023-11-19T14:38:00;14.00;71.20
82243;DHT22;71844;51.528;4.442;2023-11-19T14:40:33;13.90;71.40
82243;DHT22;71844;51.528;4.442;2023-11-19T14:43:03;13.90;71.60
82243;DHT22;71844;51.528;4.442;2023-11-19T14:45:32;13.80;72.00
82243;DHT22;71844;51.528;4.442;2023-11-19T14:48:10;13.80;72.20
82243;DHT22;71844;51.528;4.442;2023-11-19T14:50:45;13.70;72.30
82243;DHT22;71844;51.528;4.442;2023-11-19T14:53:21;13.70;72.70
82243;DHT22;71844;51.528;4.442;2023-11-19T14:55:50;13.70;72.80
82243;DHT22;71844;51.528;4.442;2023-11-19T14:58:23;13.70;73.20
82243;DHT22;71844;51.528;4.442;2023-11-19T15:00:52;13.60;72.80
82243;DHT22;71844;51.528;4.442;2023-11-19T15:03:22;13.60;73.00
82243;DHT22;71844;51.528;4.442;2023-11-19T15:05:52;13.60;73.10
82243;DHT22;71844;51.528;4.442;2023-11-19T15:08:19;13.60;73.30
82243;DHT22;71844;51.528;4.442;2023-11-19T15:10:48;13.50;73.50
82243;DHT22;71844;51.528;4.442;2023-11-19T15:13:15;13.50;73.80
82243;DHT22;71844;51.528;4.442;2023-11-19T15:15:42;13.50;73.90
82243;DHT22;71844;51.528;4.442;2023-11-19T15:18:12;13.50;74.00
82243;DHT22;71844;51.528;4.442;2023-11-19T15:20:42;13.40;74.10
82243;DHT22;71844;51.528;4.442;2023-11-19T15:23:09;13.40;74.30
82243;DHT22;71844;51.528;4.442;2023-11-19T15:25:38;13.40;74.60
82243;DHT22;71844;51.528;4.442;2023-11-19T15:28:05;13.30;75.50
82243;DHT22;71844;51.528;4.442;2023-11-19T15:30:33;13.20;74.90
82243;DHT22;71844;51.528;4.442;2023-11-19T15:33:03;13.00;75.70
82243;DHT22;71844;51.528;4.442;2023-11-19T15:35:31;12.90;76.10
82243;DHT22;71844;51.528;4.442;2023-11-19T15:37:59;12.80;76.70
82243;DHT22;71844;51.528;4.442;2023-11-19T15:40:27;12.70;77.00
82243;DHT22;71844;51.528;4.442;2023-11-19T15:42:58;12.70;77.30
82243;DHT22;71844;51.528;4.442;2023-11-19T15:45:25;12.60;77.70
82243;DHT22;71844;51.528;4.442;2023-11-19T15:47:55;12.50;78.40
82243;DHT22;71844;51.528;4.442;2023-11-19T15:50:22;12.50;78.50
82243;DHT22;71844;51.528;4.442;2023-11-19T15:52:49;12.40;78.80
82243;DHT22;71844;51.528;4.442;2023-11-19T15:55:16;12.40;79.10
82243;DHT22;71844;51.528;4.442;2023-11-19T15:57:46;12.40;79.30
82243;DHT22;71844;51.528;4.442;2023-11-19T16:00:17;12.40;79.50
82243;DHT22;71844;51.528;4.442;2023-11-19T16:02:48;12.40;79.90
82243;DHT22;71844;51.528;4.442;2023-11-19T16:05:17;12.40;79.70
82243;DHT22;71844;51.528;4.442;2023-11-19T16:07:45;12.40;80.00
82243;DHT22;71844;51.528;4.442;2023-11-19T16:10:12;12.40;80.00
82243;DHT22;71844;51.528;4.442;2023-11-19T16:12:39;12.40;79.90
82243;DHT22;71844;51.528;4.442;2023-11-19T16:15:10;12.30;80.90
82243;DHT22;71844;51.528;4.442;2023-11-19T16:17:37;12.30;81.00
82243;DHT22;71844;51.528;4.442;2023-11-19T16:20:06;12.30;80.90
82243;DHT22;71844;51.528;4.442;2023-11-19T16:22:38;12.30;81.10
82243;DHT22;71844;51.528;4.442;2023-11-19T16:25:11;12.30;81.70
82243;DHT22;71844;51.528;4.442;2023-11-19T16:27:41;12.30;81.40
82243;DHT22;71844;51.528;4.442;2023-11-19T16:30:11;12.30;82.00
82243;DHT22;71844;51.528;4.442;2023-11-19T16:32:51;12.20;82.20
82243;DHT22;71844;51.528;4.442;2023-11-19T16:35:23;12.20;82.20
82243;DHT22;71844;51.528;4.442;2023-11-19T16:37:52;12.20;82.60
82243;DHT22;71844;51.528;4.442;2023-11-19T16:40:19;12.20;82.60
82243;DHT22;71844;51.528;4.442;2023-11-19T16:42:48;12.10;82.90
82243;DHT22;71844;51.528;4.442;2023-11-19T16:45:18;12.10;83.70
82243;DHT22;71844;51.528;4.442;2023-11-19T16:47:46;12.00;83.70
82243;DHT22;71844;51.528;4.442;2023-11-19T16:50:14;12.00;83.70
82243;DHT22;71844;51.528;4.442;2023-11-19T16:52:43;12.00;83.70
82243;DHT22;71844;51.528;4.442;2023-11-19T16:55:10;12.00;84.20
82243;DHT22;71844;51.528;4.442;2023-11-19T16:57:44;11.90;83.90
82243;DHT22;71844;51.528;4.442;2023-11-19T17:00:11;11.90;84.40
82243;DHT22;71844;51.528;4.442;2023-11-19T17:02:42;11.90;84.80
82243;DHT22;71844;51.528;4.442;2023-11-19T17:05:14;11.80;84.90
82243;DHT22;71844;51.528;4.442;2023-11-19T17:07:55;11.80;84.90
82243;DHT22;71844;51.528;4.442;2023-11-19T17:10:22;11.80;85.30
82243;DHT22;71844;51.528;4.442;2023-11-19T17:12:49;11.80;85.00
82243;DHT22;71844;51.528;4.442;2023-11-19T17:15:18;11.80;85.50
82243;DHT22;71844;51.528;4.442;2023-11-19T17:17:45;11.80;85.30
82243;DHT22;71844;51.528;4.442;2023-11-19T17:20:12;11.70;86.00
82243;DHT22;71844;51.528;4.442;2023-11-19T17:22:40;11.70;86.20
82243;DHT22;71844;51.528;4.442;2023-11-19T17:25:08;11.70;86.00
82243;DHT22;71844;51.528;4.442;2023-11-19T17:27:37;11.70;86.50
82243;DHT22;71844;51.528;4.442;2023-11-19T17:30:06;11.60;86.70
82243;DHT22;71844;51.528;4.442;2023-11-19T17:32:33;11.60;87.10
82243;DHT22;71844;51.528;4.442;2023-11-19T17:35:00;11.60;87.40
82243;DHT22;71844;51.528;4.442;2023-11-19T17:37:29;11.60;87.40
82243;DHT22;71844;51.528;4.442;2023-11-19T17:39:55;11.60;87.80
82243;DHT22;71844;51.528;4.442;2023-11-19T17:42:22;11.60;87.40
82243;DHT22;71844;51.528;4.442;2023-11-19T17:44:49;11.50;87.80
82243;DHT22;71844;51.528;4.442;2023-11-19T17:47:16;11.50;87.90
82243;DHT22;71844;51.528;4.442;2023-11-19T17:49:46;11.50;87.80
82243;DHT22;71844;51.528;4.442;2023-11-19T17:52:14;11.50;88.60
82243;DHT22;71844;51.528;4.442;2023-11-19T17:54:41;11.50;88.60
82243;DHT22;71844;51.528;4.442;2023-11-19T17:57:08;11.50;88.50
82243;DHT22;71844;51.528;4.442;2023-11-19T17:59:34;11.50;89.10
82243;DHT22;71844;51.528;4.442;2023-11-19T18:02:06;11.50;88.90
82243;DHT22;71844;51.528;4.442;2023-11-19T18:04:35;11.50;88.50
82243;DHT22;71844;51.528;4.442;2023-11-19T18:07:05;11.50;88.80
82243;DHT22;71844;51.528;4.442;2023-11-19T18:09:32;11.50;89.20
82243;DHT22;71844;51.528;4.442;2023-11-19T18:11:59;11.50;88.80
82243;DHT22;71844;51.528;4.442;2023-11-19T18:14:40;11.50;88.80
82243;DHT22;71844;51.528;4.442;2023-11-19T18:17:10;11.50;88.80
82243;DHT22;71844;51.528;4.442;2023-11-19T18:19:37;11.50;88.90
82243;DHT22;71844;51.528;4.442;2023-11-19T18:22:07;11.50;89.30
82243;DHT22;71844;51.528;4.442;2023-11-19T18:24:35;11.50;89.20
82243;DHT22;71844;51.528;4.442;2023-11-19T18:27:05;11.50;89.00
82243;DHT22;71844;51.528;4.442;2023-11-19T18:29:34;11.60;89.10
82243;DHT22;71844;51.528;4.442;2023-11-19T18:32:02;11.50;89.20
82243;DHT22;71844;51.528;4.442;2023-11-19T18:34:34;11.50;89.60
82243;DHT22;71844;51.528;4.442;2023-11-19T18:37:04;11.50;89.40